Time;durP1;ratioP1;P1;durP2;ratioP2;P2;SDS_P1;SDS_P2;PMS_P1;PMS_P2;Temp;Humidity;BMP_temperature;BMP_pressure;BME280_temperature;BME280_humidity;BME280_pressure;Samples;Min_cycle;Max_cycle;Signal;HPM_P1;HPM_P2
2022/09/23 00:02:11;;;;;;;;;;;;;;;7.95;82.60;99868.66;5135329;27;825;-62
2022/09/23 00:04:37;;;;;;;;;;;;;;;7.93;82.48;99862.75;5136851;27;817;-62
2022/09/23 00:07:04;;;;;;;;;;;;;;;7.87;82.11;99861.56;5136041;27;794;-62
2022/09/23 00:09:31;;;;;;;;;;;;;;;7.83;82.69;99859.94;5136038;27;1951;-62
2022/09/23 00:11:59;;;;;;;;;;;;;;;7.80;83.46;99863.47;5136046;27;805;-62
2022/09/23 00:14:26;;;;;;;;;;;;;;;7.80;82.92;99855.19;5136609;27;909;-62
2022/09/23 00:16:53;;;;;;;;;;;;;;;7.71;82.98;99866.53;5136294;27;785;-62
2022/09/23 00:19:20;;;;;;;;;;;;;;;7.69;83.74;99868.88;5135650;27;1368;-62
2022/09/23 00:21:47;;;;;;;;;;;;;;;7.65;83.42;99859.81;5136232;27;821;-62
2022/09/23 00:24:12;;;;;;;;;;;;;;;7.66;83.77;99869.63;5136443;27;726;-62
2022/09/23 00:26:39;;;;;;;;;;;;;;;7.71;83.96;99869.28;5135943;27;864;-62
2022/09/23 00:29:05;;;;;;;;;;;;;;;7.68;84.13;99867.28;5135853;27;1913;-62
2022/09/23 00:31:32;;;;;;;;;;;;;;;7.62;83.93;99871.56;5135692;27;869;-62
2022/09/23 00:34:00;;;;;;;;;;;;;;;7.62;83.94;99858.63;5135592;27;860;-62
2022/09/23 00:36:27;;;;;;;;;;;;;;;7.64;84.27;99853.53;5135589;27;830;-62
2022/09/23 00:38:54;;;;;;;;;;;;;;;7.66;84.51;99855.88;5135406;27;829;-62
2022/09/23 00:41:21;;;;;;;;;;;;;;;7.62;83.98;99857.81;5135674;27;794;-62
2022/09/23 00:43:52;;;;;;;;;;;;;;;7.62;84.15;99857.81;5135594;27;786;-62
2022/09/23 00:46:22;;;;;;;;;;;;;;;7.65;84.41;99865.31;5135540;27;814;-62
2022/09/23 00:48:53;;;;;;;;;;;;;;;7.68;84.67;99859.03;5135298;27;1984;-62
2022/09/23 00:51:21;;;;;;;;;;;;;;;7.70;84.16;99864.94;5135249;27;778;-62
2022/09/23 00:53:50;;;;;;;;;;;;;;;7.71;84.01;99870.06;5135215;27;885;-62
2022/09/23 00:56:18;;;;;;;;;;;;;;;7.74;84.12;99874.00;5135404;27;801;-62
2022/09/23 00:58:45;;;;;;;;;;;;;;;7.71;83.75;99866.53;5135151;27;855;-62
2022/09/23 01:01:15;;;;;;;;;;;;;;;7.67;83.81;99861.00;5135070;27;789;-62
2022/09/23 01:03:43;;;;;;;;;;;;;;;7.57;84.31;99861.69;5135038;27;857;-62
2022/09/23 01:06:10;;;;;;;;;;;;;;;7.40;84.49;99868.63;5135081;27;806;-62
2022/09/23 01:08:38;;;;;;;;;;;;;;;7.22;84.91;99862.97;5134910;27;1881;-62
2022/09/23 01:11:05;;;;;;;;;;;;;;;7.01;85.53;99860.00;5134904;27;869;-62
2022/09/23 01:13:51;;;;;;;;;;;;;;;6.79;86.30;99865.28;5134413;27;798;-62
2022/09/23 01:16:17;;;;;;;;;;;;;;;6.61;87.24;99861.53;5134834;27;802;-62
2022/09/23 01:18:46;;;;;;;;;;;;;;;6.43;87.72;99859.34;5134403;27;1240;-62
2022/09/23 01:21:17;;;;;;;;;;;;;;;6.31;88.27;99854.88;5134715;27;814;-61
2022/09/23 01:23:52;;;;;;;;;;;;;;;6.37;88.35;99854.56;5135223;27;770;-61
2022/09/23 01:26:37;;;;;;;;;;;;;;;6.30;88.65;99853.31;5134565;27;818;-62
2022/09/23 01:29:25;;;;;;;;;;;;;;;6.23;89.33;99842.25;5134537;27;1964;-62
2022/09/23 01:31:53;;;;;;;;;;;;;;;6.20;89.41;99842.19;5134503;27;848;-62
2022/09/23 01:34:42;;;;;;;;;;;;;;;6.20;89.91;99842.19;5134487;27;939;-62
2022/09/23 01:37:45;;;;;;;;;;;;;;;6.20;90.22;99848.47;5134466;27;869;-62
2022/09/23 01:40:18;;;;;;;;;;;;;;;6.23;90.21;99847.72;5071137;28;1292;-62
2022/09/23 01:42:53;;;;;;;;;;;;;;;6.19;90.81;99851.56;5070929;28;887;-62
2022/09/23 01:45:37;;;;;;;;;;;;;;;6.23;90.72;99847.72;5054062;28;1254;-62
2022/09/23 01:48:25;;;;;;;;;;;;;;;6.18;90.69;99856.28;5070873;28;929;-62
2022/09/23 01:51:00;;;;;;;;;;;;;;;6.24;91.42;99854.78;5056839;28;1655;-62
2022/09/23 01:53:27;;;;;;;;;;;;;;;6.33;91.92;99858.03;5070651;28;921;-62
2022/09/23 01:55:56;;;;;;;;;;;;;;;6.45;91.88;99865.25;5070790;28;913;-62
2022/09/23 01:58:29;;;;;;;;;;;;;;;6.50;91.48;99861.41;5054095;28;1304;-62
2022/09/23 02:01:00;;;;;;;;;;;;;;;6.49;91.56;99859.81;5070522;28;883;-62
2022/09/23 02:03:31;;;;;;;;;;;;;;;6.47;91.19;99854.69;5070576;28;810;-62
2022/09/23 02:06:11;;;;;;;;;;;;;;;6.58;91.73;99860.31;5070466;28;845;-62
2022/09/23 02:08:41;;;;;;;;;;;;;;;6.73;91.20;99858.53;5070473;28;1949;-62
2022/09/23 02:11:15;;;;;;;;;;;;;;;6.91;90.70;99862.28;5070575;28;941;-62
2022/09/23 02:13:41;;;;;;;;;;;;;;;7.06;90.03;99863.22;5089999;27;1084;-62
2022/09/23 02:16:12;;;;;;;;;;;;;;;7.04;90.19;99856.50;5133582;27;870;-62
2022/09/23 02:18:50;;;;;;;;;;;;;;;7.04;90.19;99860.06;5133334;27;1206;-62
2022/09/23 02:21:19;;;;;;;;;;;;;;;7.03;90.28;99863.19;5133684;27;877;-62
2022/09/23 02:23:49;;;;;;;;;;;;;;;7.02;89.75;99867.88;5132817;27;810;-62
2022/09/23 02:26:22;;;;;;;;;;;;;;;7.03;89.48;99865.94;5133404;27;849;-62
2022/09/23 02:28:52;;;;;;;;;;;;;;;6.92;88.96;99860.31;5133264;27;1910;-62
2022/09/23 02:31:25;;;;;;;;;;;;;;;6.72;89.84;99855.00;5133593;27;860;-62
2022/09/23 02:33:58;;;;;;;;;;;;;;;6.62;90.40;99863.13;5133331;27;877;-62
2022/09/23 02:36:28;;;;;;;;;;;;;;;6.47;90.35;99860.19;5133190;27;860;-62
2022/09/23 02:39:01;;;;;;;;;;;;;;;6.40;91.63;99854.63;5133387;27;908;-62
2022/09/23 02:41:37;;;;;;;;;;;;;;;6.45;91.62;99861.72;5133280;27;817;-62
2022/09/23 02:44:10;;;;;;;;;;;;;;;6.38;91.79;99864.38;5133098;27;814;-62
2022/09/23 02:46:37;;;;;;;;;;;;;;;6.40;92.29;99875.78;5133095;27;806;-62
2022/09/23 02:49:24;;;;;;;;;;;;;;;6.46;92.04;99866.84;5132910;27;1885;-62
2022/09/23 02:51:53;;;;;;;;;;;;;;;6.34;91.60;99867.09;5132908;27;1327;-62
2022/09/23 02:54:22;;;;;;;;;;;;;;;6.26;91.98;99868.16;5132961;27;813;-62
2022/09/23 02:56:48;;;;;;;;;;;;;;;6.21;92.83;99871.19;5132895;27;826;-62
2022/09/23 02:59:18;;;;;;;;;;;;;;;6.12;92.50;99866.00;5132816;27;833;-62
2022/09/23 03:01:56;;;;;;;;;;;;;;;5.98;93.06;99876.78;5133069;27;889;-62
2022/09/23 03:04:24;;;;;;;;;;;;;;;5.85;93.72;99874.22;5132866;27;877;-62
2022/09/23 03:07:00;;;;;;;;;;;;;;;5.72;94.00;99873.63;5132753;27;868;-62
2022/09/23 03:09:32;;;;;;;;;;;;;;;5.58;94.59;99869.84;5133170;27;1885;-62
2022/09/23 03:12:34;;;;;;;;;;;;;;;5.46;95.02;99868.06;5132835;27;806;-62
2022/09/23 03:15:16;;;;;;;;;;;;;;;5.42;95.67;99878.19;5132668;27;1691;-62
2022/09/23 03:17:50;;;;;;;;;;;;;;;5.41;95.74;99880.16;5132552;27;955;-62
2022/09/23 03:20:35;;;;;;;;;;;;;;;5.41;96.49;99876.63;5133287;27;771;-62
2022/09/23 03:23:05;;;;;;;;;;;;;;;5.45;96.60;99882.97;5132849;28;814;-62
2022/09/23 03:25:35;;;;;;;;;;;;;;;5.48;96.47;99877.53;5132608;28;814;-61
2022/09/23 03:28:02;;;;;;;;;;;;;;;5.55;96.81;99876.06;5132623;28;818;-62
2022/09/23 03:30:30;;;;;;;;;;;;;;;5.62;96.93;99881.66;5132407;28;1894;-62
2022/09/23 03:32:59;;;;;;;;;;;;;;;5.69;96.72;99879.03;5132469;28;857;-62
2022/09/23 03:35:28;;;;;;;;;;;;;;;5.56;96.33;99883.13;5133068;27;1196;-61
2022/09/23 03:38:00;;;;;;;;;;;;;;;5.44;96.82;99878.63;5136728;27;821;-62
2022/09/23 03:40:32;;;;;;;;;;;;;;;5.45;97.57;99877.47;5136584;27;894;-62
2022/09/23 03:43:00;;;;;;;;;;;;;;;5.44;97.29;99882.16;5136587;27;856;-62
2022/09/23 03:45:28;;;;;;;;;;;;;;;5.40;97.31;99880.50;5136532;27;786;-62
2022/09/23 03:47:55;;;;;;;;;;;;;;;5.30;97.10;99879.19;5136511;27;849;-61
2022/09/23 03:50:22;;;;;;;;;;;;;;;5.25;97.65;99883.00;5136399;27;1881;-61
2022/09/23 03:52:49;;;;;;;;;;;;;;;5.18;97.32;99891.09;5136454;27;877;-62
2022/09/23 03:55:16;;;;;;;;;;;;;;;5.14;97.96;99881.22;5136410;27;782;-61
2022/09/23 03:57:44;;;;;;;;;;;;;;;5.25;98.29;99872.06;5136385;27;782;-61
2022/09/23 04:00:11;;;;;;;;;;;;;;;5.42;98.45;99875.44;5136305;27;926;-61
2022/09/23 04:02:39;;;;;;;;;;;;;;;5.49;98.45;99878.34;5136659;27;774;-62
2022/09/23 04:05:06;;;;;;;;;;;;;;;5.64;98.47;99874.66;5136460;27;829;-62
2022/09/23 04:07:33;;;;;;;;;;;;;;;5.65;98.55;99869.97;5136395;27;864;-62
2022/09/23 04:09:59;;;;;;;;;;;;;;;5.67;98.88;99871.16;5136158;27;1906;-62
2022/09/23 04:12:26;;;;;;;;;;;;;;;5.79;99.17;99861.97;5136182;27;1310;-62
2022/09/23 04:14:53;;;;;;;;;;;;;;;5.87;98.75;99868.34;5136460;27;818;-62
2022/09/23 04:17:19;;;;;;;;;;;;;;;5.93;98.38;99867.66;5136011;27;1277;-62
2022/09/23 04:19:46;;;;;;;;;;;;;;;5.97;98.25;99864.19;5135651;27;1382;-62
2022/09/23 04:22:12;;;;;;;;;;;;;;;6.04;98.35;99869.78;5135877;27;817;-62
2022/09/23 04:24:39;;;;;;;;;;;;;;;6.08;98.38;99868.69;5135988;27;802;-61
2022/09/23 04:27:05;;;;;;;;;;;;;;;6.16;98.73;99872.31;5135782;27;849;-61
2022/09/23 04:29:32;;;;;;;;;;;;;;;6.24;98.27;99863.03;5135618;27;1934;-62
2022/09/23 04:31:59;;;;;;;;;;;;;;;6.36;98.84;99874.94;5135683;27;810;-62
2022/09/23 04:34:25;;;;;;;;;;;;;;;6.53;98.40;99872.44;5135709;27;810;-62
2022/09/23 04:36:51;;;;;;;;;;;;;;;6.72;98.40;99878.91;5135515;27;880;-62
2022/09/23 04:39:18;;;;;;;;;;;;;;;6.99;98.22;99870.59;5135471;27;801;-62
2022/09/23 04:41:45;;;;;;;;;;;;;;;7.34;96.96;99883.91;5135430;27;1047;-62
2022/09/23 04:44:13;;;;;;;;;;;;;;;7.60;96.87;99893.19;5135748;27;889;-62
2022/09/23 04:46:40;;;;;;;;;;;;;;;7.86;96.32;99892.97;5134648;27;877;-62
2022/09/23 04:49:07;;;;;;;;;;;;;;;8.20;94.84;99890.06;5135293;27;1943;-62
2022/09/23 04:51:34;;;;;;;;;;;;;;;8.58;94.42;99885.97;5135222;27;869;-62
2022/09/23 04:54:01;;;;;;;;;;;;;;;8.91;93.41;99895.16;5134016;27;1347;-62
2022/09/23 04:56:31;;;;;;;;;;;;;;;9.21;92.62;99899.56;5135524;27;853;-62
2022/09/23 04:58:57;;;;;;;;;;;;;;;9.52;91.62;99905.53;5135141;27;851;-62
2022/09/23 05:01:26;;;;;;;;;;;;;;;9.79;90.41;99905.91;5135090;27;1197;-63
2022/09/23 05:33:29;;;;;;;;;;;;;;;13.72;66.12;99905.25;5079120;23;1667;-59
2022/09/23 05:35:55;;;;;;;;;;;;;;;14.02;65.00;99913.47;5013716;28;810;-59
2022/09/23 05:38:21;;;;;;;;;;;;;;;14.28;64.11;99911.03;5013717;28;865;-60
2022/09/23 05:40:58;;;;;;;;;;;;;;;14.19;64.09;99911.59;5012221;28;1465;-60
2022/09/23 05:43:24;;;;;;;;;;;;;;;14.15;64.35;99918.44;5013684;28;827;-59
2022/09/23 05:45:51;;;;;;;;;;;;;;;14.11;63.77;99915.72;5013689;28;849;-59
2022/09/23 05:48:18;;;;;;;;;;;;;;;14.08;63.34;99908.19;5013660;28;1981;-59
2022/09/23 05:50:51;;;;;;;;;;;;;;;14.02;62.78;99907.91;5013558;28;818;-59
2022/09/23 05:53:18;;;;;;;;;;;;;;;13.89;62.25;99909.75;5013234;28;915;-59
2022/09/23 05:55:45;;;;;;;;;;;;;;;13.89;62.47;99910.53;5013228;28;835;-60
2022/09/23 05:58:12;;;;;;;;;;;;;;;14.24;61.88;99913.09;5012297;28;862;-60
2022/09/23 06:00:39;;;;;;;;;;;;;;;14.62;60.53;99908.03;5013033;28;807;-59
2022/09/23 06:03:12;;;;;;;;;;;;;;;14.40;60.59;99910.41;5012961;28;866;-59
2022/09/23 06:05:38;;;;;;;;;;;;;;;14.04;61.56;99908.28;5011844;28;901;-59
2022/09/23 06:08:05;;;;;;;;;;;;;;;13.66;62.58;99911.28;5012922;28;799;-59
2022/09/23 06:10:41;;;;;;;;;;;;;;;13.39;62.95;99916.84;5011624;28;1975;-59
2022/09/23 06:13:08;;;;;;;;;;;;;;;13.21;63.60;99922.63;5012941;28;803;-59
2022/09/23 06:15:35;;;;;;;;;;;;;;;12.92;64.14;99913.88;5013180;28;780;-59
2022/09/23 06:18:02;;;;;;;;;;;;;;;12.79;64.21;99923.97;5013080;28;802;-59
2022/09/23 06:20:28;;;;;;;;;;;;;;;13.80;62.54;99915.03;5013395;28;743;-59
2022/09/23 06:23:01;;;;;;;;;;;;;;;14.88;58.77;99919.44;5011461;28;854;-60
2022/09/23 06:25:28;;;;;;;;;;;;;;;15.52;56.48;99920.03;5012589;28;848;-59
2022/09/23 06:27:55;;;;;;;;;;;;;;;15.82;54.92;99918.16;5012678;28;842;-59
2022/09/23 06:30:23;;;;;;;;;;;;;;;15.92;54.76;99917.91;5012622;28;1886;-59
2022/09/23 06:32:53;;;;;;;;;;;;;;;16.17;54.13;99929.63;5012343;28;1303;-59
2022/09/23 06:35:21;;;;;;;;;;;;;;;16.45;52.39;99933.66;5012519;28;811;-60
2022/09/23 06:37:47;;;;;;;;;;;;;;;16.79;51.13;99926.75;5012469;28;815;-59
2022/09/23 06:40:14;;;;;;;;;;;;;;;17.53;50.29;99931.38;5012462;28;873;-59
2022/09/23 06:42:41;;;;;;;;;;;;;;;17.87;47.62;99927.91;5012389;28;914;-59
2022/09/23 06:45:11;;;;;;;;;;;;;;;17.28;49.29;99927.34;5012372;28;787;-59
2022/09/23 06:47:38;;;;;;;;;;;;;;;16.65;50.83;99928.72;5011057;28;1305;-59
2022/09/23 06:50:06;;;;;;;;;;;;;;;16.20;51.37;99929.53;5012183;28;1969;-59
2022/09/23 06:52:33;;;;;;;;;;;;;;;15.78;52.49;99931.41;5012200;28;847;-59
2022/09/23 06:55:00;;;;;;;;;;;;;;;15.49;53.55;99930.03;5012249;28;858;-59
2022/09/23 06:57:30;;;;;;;;;;;;;;;15.34;54.02;99925.22;5010875;28;1270;-60
2022/09/23 06:59:57;;;;;;;;;;;;;;;15.21;54.45;99930.66;5012027;28;854;-59
2022/09/23 07:02:25;;;;;;;;;;;;;;;15.09;54.66;99929.34;5012059;28;885;-59
2022/09/23 07:04:55;;;;;;;;;;;;;;;15.08;55.04;99924.97;5012330;28;818;-60
2022/09/23 07:07:22;;;;;;;;;;;;;;;14.99;54.45;99935.91;5011991;28;851;-60
2022/09/23 07:09:50;;;;;;;;;;;;;;;15.10;54.29;99942.81;5011624;28;1886;-59
2022/09/23 07:12:17;;;;;;;;;;;;;;;15.29;54.03;99951.56;5011970;28;803;-59
2022/09/23 07:14:44;;;;;;;;;;;;;;;15.47;53.27;99940.84;5012584;28;834;-59
2022/09/23 07:17:11;;;;;;;;;;;;;;;15.87;52.60;99954.66;5012301;28;846;-59
2022/09/23 07:19:38;;;;;;;;;;;;;;;16.74;50.87;99947.63;5012551;28;838;-59
2022/09/23 07:22:21;;;;;;;;;;;;;;;18.19;46.99;99945.63;5109573;27;1374;-59
2022/09/23 07:24:47;;;;;;;;;;;;;;;17.93;46.46;99945.69;5109473;28;809;-59
2022/09/23 07:27:18;;;;;;;;;;;;;;;17.52;47.32;99943.78;5109483;28;845;-59
2022/09/23 07:29:49;;;;;;;;;;;;;;;17.51;47.81;99953.38;5109225;28;911;-59
2022/09/23 07:32:15;;;;;;;;;;;;;;;17.59;47.57;99957.53;5108516;28;1340;-59
2022/09/23 07:34:43;;;;;;;;;;;;;;;17.38;47.97;99964.56;5109848;28;802;-59
2022/09/23 07:37:10;;;;;;;;;;;;;;;17.35;48.27;99969.03;5109399;28;876;-59
2022/09/23 07:39:38;;;;;;;;;;;;;;;17.57;47.91;99959.22;5109422;28;888;-59
2022/09/23 07:42:05;;;;;;;;;;;;;;;17.67;47.58;99953.28;5109031;28;1966;-59
2022/09/23 07:44:32;;;;;;;;;;;;;;;17.97;47.05;99953.97;5109101;28;864;-59
2022/09/23 07:46:59;;;;;;;;;;;;;;;18.08;46.88;99965.56;5109144;28;880;-59
2022/09/23 07:49:26;;;;;;;;;;;;;;;17.98;46.21;99958.31;5107642;28;1475;-59
2022/09/23 07:51:53;;;;;;;;;;;;;;;17.99;46.22;99962.69;5109013;28;865;-59
2022/09/23 07:54:20;;;;;;;;;;;;;;;17.82;45.88;99962.03;5108778;28;797;-59
2022/09/23 07:56:47;;;;;;;;;;;;;;;17.61;46.33;99963.44;5109033;28;893;-59
2022/09/23 07:59:17;;;;;;;;;;;;;;;17.53;46.26;99965.69;5108360;28;818;-59
2022/09/23 08:01:48;;;;;;;;;;;;;;;17.20;46.74;99961.50;5108703;28;1945;-59
2022/09/23 08:04:16;;;;;;;;;;;;;;;16.93;47.31;99957.88;5108966;28;862;-60
2022/09/23 08:06:44;;;;;;;;;;;;;;;16.75;47.40;99963.16;5108671;28;818;-59
2022/09/23 08:09:11;;;;;;;;;;;;;;;16.84;47.75;99962.56;5108648;28;885;-59
2022/09/23 08:11:41;;;;;;;;;;;;;;;16.95;47.53;99954.66;5108530;28;794;-59
2022/09/23 08:14:08;;;;;;;;;;;;;;;16.86;47.31;99960.09;5108539;28;881;-59
2022/09/23 08:16:34;;;;;;;;;;;;;;;16.94;47.35;99955.84;5107189;28;1248;-59
2022/09/23 08:19:01;;;;;;;;;;;;;;;16.92;47.37;99949.97;5108424;28;889;-59
2022/09/23 08:21:28;;;;;;;;;;;;;;;16.89;47.52;99962.00;5108012;28;1914;-59
2022/09/23 08:23:54;;;;;;;;;;;;;;;16.77;47.45;99965.50;5108323;28;848;-59
2022/09/23 08:26:21;;;;;;;;;;;;;;;16.65;47.69;99967.03;5108278;28;829;-59
2022/09/23 08:28:49;;;;;;;;;;;;;;;16.58;47.75;99961.63;5108120;28;826;-59
2022/09/23 08:31:16;;;;;;;;;;;;;;;16.60;47.63;99959.16;5108503;28;845;-59
2022/09/23 08:33:43;;;;;;;;;;;;;;;16.73;47.43;99960.81;5094471;28;850;-60
2022/09/23 08:36:09;;;;;;;;;;;;;;;17.17;47.45;99957.59;5093250;28;869;-59
2022/09/23 08:38:36;;;;;;;;;;;;;;;17.52;46.53;99952.94;5094492;28;802;-59
2022/09/23 08:41:15;;;;;;;;;;;;;;;17.89;45.47;99947.81;5094494;28;1909;-59
2022/09/23 08:43:46;;;;;;;;;;;;;;;18.37;45.10;99953.44;5094444;28;790;-59
2022/09/23 08:46:17;;;;;;;;;;;;;;;19.26;42.55;99941.00;5094322;28;842;-59
2022/09/23 08:48:46;;;;;;;;;;;;;;;20.57;40.27;99938.09;5094301;28;869;-60
2022/09/23 08:51:21;;;;;;;;;;;;;;;21.55;38.22;99947.31;5094166;28;825;-59
2022/09/23 08:53:48;;;;;;;;;;;;;;;22.58;36.89;99943.41;5094509;28;845;-59
2022/09/23 08:56:16;;;;;;;;;;;;;;;23.75;34.37;99939.50;5094397;28;798;-58
2022/09/23 08:58:49;;;;;;;;;;;;;;;23.56;32.75;99941.78;5094069;28;959;-59
2022/09/23 09:01:16;;;;;;;;;;;;;;;22.71;33.72;99942.34;5093989;28;1882;-59
2022/09/23 09:03:47;;;;;;;;;;;;;;;21.75;35.17;99940.34;5093983;28;854;-59
2022/09/23 09:06:19;;;;;;;;;;;;;;;21.70;35.48;99949.41;5093997;28;850;-59
2022/09/23 09:08:52;;;;;;;;;;;;;;;21.31;35.72;99938.75;5093888;28;802;-59
2022/09/23 09:11:22;;;;;;;;;;;;;;;21.06;36.29;99941.94;5094023;28;869;-59
2022/09/23 09:14:18;;;;;;;;;;;;;;;20.11;37.65;99938.81;5094081;28;850;-60
2022/09/23 09:16:51;;;;;;;;;;;;;;;19.15;39.10;99944.22;5051270;28;1108;-59
2022/09/23 09:19:25;;;;;;;;;;;;;;;18.67;40.14;99937.16;5051449;28;896;-60
2022/09/23 09:21:54;;;;;;;;;;;;;;;18.71;40.56;99941.41;5051027;28;1890;-60
2022/09/23 09:24:32;;;;;;;;;;;;;;;18.45;41.27;99940.72;5051291;28;912;-60
2022/09/23 09:27:09;;;;;;;;;;;;;;;18.41;41.62;99948.47;5051201;28;1075;-60
2022/09/23 09:29:39;;;;;;;;;;;;;;;18.63;41.59;99937.31;5051061;28;912;-60
2022/09/23 09:32:17;;;;;;;;;;;;;;;18.85;41.15;99933.75;5051099;28;838;-59
2022/09/23 09:34:48;;;;;;;;;;;;;;;19.00;40.88;99945.22;5051320;28;1265;-60
2022/09/23 09:37:19;;;;;;;;;;;;;;;19.15;40.66;99937.81;5051064;28;879;-60
2022/09/23 09:39:46;;;;;;;;;;;;;;;19.07;40.85;99942.91;5051318;28;934;-60
2022/09/23 09:42:34;;;;;;;;;;;;;;;18.84;40.79;99940.59;5050977;28;1886;-60
2022/09/23 09:45:02;;;;;;;;;;;;;;;18.85;41.13;99951.34;5049707;28;1290;-60
2022/09/23 09:47:47;;;;;;;;;;;;;;;18.79;41.09;99944.75;5050580;28;881;-60
2022/09/23 09:50:20;;;;;;;;;;;;;;;18.80;41.00;99942.72;5050811;28;889;-60
2022/09/23 09:52:47;;;;;;;;;;;;;;;19.24;40.53;99946.28;5058266;28;917;-60
2022/09/23 09:55:22;;;;;;;;;;;;;;;19.32;40.20;99941.97;5072722;28;802;-59
2022/09/23 09:57:48;;;;;;;;;;;;;;;20.11;39.15;99940.84;5072577;28;873;-60
2022/09/23 10:00:22;;;;;;;;;;;;;;;21.12;37.38;99935.25;5071338;28;1947;-58
2022/09/23 10:02:52;;;;;;;;;;;;;;;21.56;36.40;99939.63;5072851;28;861;-59
2022/09/23 10:05:29;;;;;;;;;;;;;;;21.15;36.27;99927.88;5072565;28;854;-60
2022/09/23 10:07:55;;;;;;;;;;;;;;;20.17;37.89;99931.34;5072768;28;842;-60
2022/09/23 10:10:23;;;;;;;;;;;;;;;20.24;37.95;99927.47;5072464;28;838;-60
2022/09/23 10:12:52;;;;;;;;;;;;;;;20.40;37.65;99920.78;5072397;28;787;-59
2022/09/23 10:15:26;;;;;;;;;;;;;;;20.91;37.18;99924.97;5072409;28;813;-59
2022/09/23 10:17:53;;;;;;;;;;;;;;;21.09;36.85;99927.75;5072325;28;786;-60
2022/09/23 10:20:20;;;;;;;;;;;;;;;20.79;37.14;99924.69;5075657;28;1909;-60
2022/09/23 10:22:46;;;;;;;;;;;;;;;;;;5092537;28;798;-60
2022/09/23 10:25:19;;;;;;;;;;;;;;;20.20;37.97;99921.22;5092475;28;873;-59
2022/09/23 10:27:46;;;;;;;;;;;;;;;20.33;37.91;99919.06;5092325;28;802;-59
2022/09/23 10:30:24;;;;;;;;;;;;;;;20.40;38.13;99906.75;5092291;28;873;-60
2022/09/23 10:32:53;;;;;;;;;;;;;;;20.16;38.50;99915.78;5091253;28;1245;-60
2022/09/23 10:35:23;;;;;;;;;;;;;;;20.82;37.36;99917.31;5092298;28;858;-60
2022/09/23 10:37:51;;;;;;;;;;;;;;;22.03;35.21;99899.50;5092453;28;875;-59
2022/09/23 10:49:10;;;;;;;;;;;;;;;23.10;32.83;99889.53;5092061;28;620;-59
2022/09/23 10:51:47;;;;;;;;;;;;;;;21.90;34.54;99884.13;5090693;28;1045;-60
2022/09/23 10:54:32;;;;;;;;;;;;;;;20.73;36.61;99892.84;5092252;28;830;-59
2022/09/23 10:57:36;;;;;;;;;;;;;;;19.48;39.10;99890.50;5092082;28;814;-59
2022/09/23 10:59:48;;;;;;;;;;;;;;;18.49;40.27;99895.84;5091662;28;1127;-60
2022/09/23 11:02:28;;;;;;;;;;;;;;;17.93;39.31;99894.56;5092387;28;1882;-60
2022/09/23 11:04:59;;;;;;;;;;;;;;;17.53;40.16;99903.41;5091799;28;798;-60
2022/09/23 11:07:34;;;;;;;;;;;;;;;17.22;40.32;99905.97;5091823;28;814;-59
2022/09/23 11:10:24;;;;;;;;;;;;;;;16.91;40.42;99914.88;5091818;28;848;-60
2022/09/23 11:13:10;;;;;;;;;;;;;;;16.73;41.04;99910.56;5091755;28;802;-60
2022/09/23 11:15:52;;;;;;;;;;;;;;;15.51;46.02;99899.75;5091790;28;794;-60
2022/09/23 11:18:22;;;;;;;;;;;;;;;13.66;54.70;99908.50;5091612;28;826;-59
2022/09/23 11:20:49;;;;;;;;;;;;;;;11.88;61.43;99895.59;5091678;28;1902;-60
2022/09/23 11:23:28;;;;;;;;;;;;;;;11.46;67.21;99908.56;5091888;28;794;-60
2022/09/23 11:26:04;;;;;;;;;;;;;;;11.32;71.85;99917.72;5091525;28;818;-61
2022/09/23 11:28:45;;;;;;;;;;;;;;;11.33;73.52;99921.28;5091805;28;833;-61
2022/09/23 11:31:28;;;;;;;;;;;;;;;11.23;72.94;99920.94;5091545;28;842;-61
2022/09/23 11:33:54;;;;;;;;;;;;;;;11.03;77.03;99925.38;5091603;28;867;-60
2022/09/23 11:36:38;;;;;;;;;;;;;;;11.20;80.09;99907.94;5091528;28;849;-62
2022/09/23 11:39:11;;;;;;;;;;;;;;;11.28;79.41;99891.28;5091497;28;846;-60
2022/09/23 11:41:39;;;;;;;;;;;;;;;11.83;82.96;99887.69;5091379;28;1885;-60
2022/09/23 11:44:10;;;;;;;;;;;;;;;12.52;84.80;99871.97;5091757;28;798;-60
2022/09/23 11:46:43;;;;;;;;;;;;;;;12.75;84.98;99874.06;5091404;28;834;-60
2022/09/23 11:49:14;;;;;;;;;;;;;;;12.77;86.13;99860.59;5091597;28;901;-60
2022/09/23 11:52:00;;;;;;;;;;;;;;;13.12;86.57;99849.41;5091383;28;790;-60
2022/09/23 11:54:37;;;;;;;;;;;;;;;13.58;86.52;99850.72;5091373;28;897;-60
2022/09/23 11:57:08;;;;;;;;;;;;;;;13.98;85.89;99843.28;5091256;28;842;-60
2022/09/23 11:59:46;;;;;;;;;;;;;;;14.67;83.89;99846.31;5091269;28;794;-60
2022/09/23 12:02:20;;;;;;;;;;;;;;;15.74;81.07;99844.31;5091214;28;1909;-60
2022/09/23 12:05:16;;;;;;;;;;;;;;;16.30;78.08;99842.03;5091277;28;850;-60
2022/09/23 12:07:52;;;;;;;;;;;;;;;17.02;76.44;99834.38;5083827;28;1138;-60
2022/09/23 12:10:21;;;;;;;;;;;;;;;18.09;68.86;99835.69;5095095;28;826;-59
2022/09/23 12:12:49;;;;;;;;;;;;;;;18.05;67.90;99826.66;5094971;28;771;-59
2022/09/23 12:15:25;;;;;;;;;;;;;;;17.83;65.36;99829.38;5094958;28;869;-59
2022/09/23 12:18:03;;;;;;;;;;;;;;;18.05;65.20;99820.25;5095109;28;846;-59
2022/09/23 12:20:32;;;;;;;;;;;;;;;19.27;61.63;99821.31;5094496;28;1905;-59
2022/09/23 12:23:12;;;;;;;;;;;;;;;20.38;56.80;99814.59;5094857;28;806;-60
2022/09/23 12:25:48;;;;;;;;;;;;;;;21.03;55.06;99827.69;5094642;28;829;-60
2022/09/23 12:28:15;;;;;;;;;;;;;;;21.31;54.46;99815.06;5094691;28;794;-60
2022/09/23 12:30:42;;;;;;;;;;;;;;;21.46;55.44;99817.22;5093345;28;1268;-61
2022/09/23 12:33:15;;;;;;;;;;;;;;;22.09;51.39;99806.75;5094782;28;822;-61
2022/09/23 12:35:44;;;;;;;;;;;;;;;22.65;50.10;99806.25;5095177;28;810;-61
2022/09/23 12:38:13;;;;;;;;;;;;;;;21.97;49.95;99808.56;5093225;28;1225;-61
2022/09/23 12:40:43;;;;;;;;;;;;;;;21.97;49.50;99810.63;5094382;28;1871;-61
2022/09/23 12:43:19;;;;;;;;;;;;;;;22.16;46.14;99803.56;5094515;28;869;-60
2022/09/23 12:45:46;;;;;;;;;;;;;;;21.53;44.45;99811.22;5094361;28;822;-60
2022/09/23 12:48:13;;;;;;;;;;;;;;;20.73;44.58;99816.25;5094263;28;850;-61
2022/09/23 12:50:59;;;;;;;;;;;;;;;20.16;45.47;99800.72;5094275;28;779;-61
2022/09/23 12:53:34;;;;;;;;;;;;;;;20.01;43.87;99818.66;5094188;28;893;-61
2022/09/23 12:56:18;;;;;;;;;;;;;;;19.64;44.80;99815.78;5094144;28;806;-61
2022/09/23 12:58:45;;;;;;;;;;;;;;;19.07;44.89;99819.66;5094125;28;810;-60
2022/09/23 13:01:14;;;;;;;;;;;;;;;19.16;47.13;99816.13;5093963;28;1882;-60
2022/09/23 13:06:38;;;;;;;;;;;;;;;19.34;45.99;99827.38;5094003;28;636;-61
2022/09/23 13:09:14;;;;;;;;;;;;;;;19.41;45.82;99822.75;5093913;28;817;-60
2022/09/23 13:14:45;;;;;;;;;;;;;;;19.17;47.29;99826.88;5093906;28;675;-60
2022/09/23 13:17:32;;;;;;;;;;;;;;;19.07;46.30;99824.50;5093732;28;850;-59
2022/09/23 13:20:17;;;;;;;;;;;;;;;18.74;45.70;99825.72;5093225;28;1164;-60
2022/09/23 13:22:53;;;;;;;;;;;;;;;18.66;45.58;99824.41;5092377;28;1308;-60
2022/09/23 13:25:22;;;;;;;;;;;;;;;19.08;45.54;99824.03;5093570;28;821;-60
2022/09/23 13:27:53;;;;;;;;;;;;;;;19.40;45.17;99818.41;5094273;28;797;-60
2022/09/23 13:30:22;;;;;;;;;;;;;;;19.83;45.54;99825.81;5093521;28;805;-61
2022/09/23 13:33:11;;;;;;;;;;;;;;;20.13;42.98;99818.50;5093451;28;877;-61
2022/09/23 13:35:43;;;;;;;;;;;;;;;20.53;44.66;99809.09;5088077;28;1102;-60
2022/09/23 13:38:11;;;;;;;;;;;;;;;21.19;45.84;99810.47;5092022;28;1289;-61
2022/09/23 13:40:40;;;;;;;;;;;;;;;21.85;45.73;99811.63;5093242;28;1936;-60
2022/09/23 13:43:11;;;;;;;;;;;;;;;22.33;42.85;99800.31;5093228;28;861;-60
2022/09/23 13:45:41;;;;;;;;;;;;;;;22.81;46.75;99798.09;5093188;28;861;-61
2022/09/23 13:48:14;;;;;;;;;;;;;;;23.09;48.44;99797.00;5093556;28;767;-61
2022/09/23 13:50:46;;;;;;;;;;;;;;;22.88;48.42;99802.53;5093034;28;940;-62
2022/09/23 13:53:19;;;;;;;;;;;;;;;22.46;42.77;99805.66;5093044;28;837;-61
2022/09/23 13:55:45;;;;;;;;;;;;;;;22.08;45.70;99799.56;5093000;28;886;-61
2022/09/23 13:58:22;;;;;;;;;;;;;;;22.03;45.22;99800.25;5092991;28;802;-61
2022/09/23 14:00:49;;;;;;;;;;;;;;;22.26;49.72;99797.91;5091582;28;1909;-61
2022/09/23 14:03:26;;;;;;;;;;;;;;;22.54;48.32;99801.97;5092862;28;843;-61
2022/09/23 14:05:54;;;;;;;;;;;;;;;22.77;45.58;99799.56;5092811;28;798;-62
2022/09/23 14:08:21;;;;;;;;;;;;;;;22.33;43.55;99792.66;5092750;28;869;-61
2022/09/23 14:10:48;;;;;;;;;;;;;;;21.84;45.07;99796.03;5092787;28;845;-61
2022/09/23 14:13:16;;;;;;;;;;;;;;;21.74;40.61;99793.28;5092651;28;810;-60
2022/09/23 14:15:44;;;;;;;;;;;;;;;21.67;44.68;99793.63;5092635;28;861;-60